Terminal Aerodrome Forecast
Issued by NWS Milwaukee/Sullivan, WI

Home | Current Version | Previous Version | Text Only | Print | Product List | Glossary On
Versions: 1 2 3 4 5 6 7 8 9 10 11 12 13 14 15 16 17 18 19 20 21
000
FTUS43 KMKX 181125
TAFMKE
TAF
KMKE 181125Z 1812/1918 20009KT P6SM SKC
     FM181600 20013G21KT P6SM SKC
     FM190000 20012KT P6SM FEW250 WS020/22040KT
     FM190400 23011KT P6SM FEW250 WS020/24045KT
     FM190600 24009KT P6SM FEW035 WS020/26040KT
     FM190800 26006KT P6SM FEW035=

USA.gov is the U.S. government's official web portal to all federal, state and local government web resources and services.